LFST/SXB METAR and TAF weather

Enter ICAO airport designator
Station Type Date Time Source
LFST METAR 2019/06/19 06:30 UTC NOAA

LFST 190630Z AUTO 21004KT 160V240 9999 NSC 22/16 Q1011 NOSIG


Station Type Date Time Source
LFST Decoded METAR 2019/06/19 06:30 UTC NOAA

Strasbourg, France (LFST) 48-33N 007-38E 154M
Jun 19, 2019 - 02:30 AM EDT / 2019.06.19 0630 UTC
Wind: from the SSW (210 degrees) at 5 MPH (4 KT) (direction variable):0
Visibility: greater than 7 mile(s):0
Temperature: 71 F (22 C)
Dew Point: 60 F (16 C)
Relative Humidity: 68%
Pressure (altimeter): 29.85 in. Hg (1011 hPa)
ob: LFST 190630Z AUTO 21004KT 160V240 9999 NSC 22/16 Q1011 NOSIG
cycle: 6

Station Type Date Time Source
LFST TAF 2019/06/19 06:21 UTC NOAA

TAF LFST 190500Z 1906/2006 18008KT CAVOK
TEMPO 1909/1922 FEW060CB PROB40
TEMPO 1918/1922 28020G40KT 2000 +TSRA BKN060CB

Example: see airport list